Estación Meteorológica Peña el Pijo (Robertgarden) [ 01/30/23 14:27:33 CET ]

Fecha Hora Presion(HPa) Temp (°C) Humedad % Rocio (°C) Viento ( m/s) Direccion Lluvia 1Hora(mm) Lluvia 24H(mm) LLuvia Total(mm)
2010-Dec-10 01:01:16 1016.600 4.9 88 3.1         12.43
2010-Dec-10 02:03:12 1016.500 4.3 89 2.6         12.43
2010-Dec-10 03:01:13 1016.700 3.6 89 1.9         12.43
2010-Dec-10 04:01:12 1016.900 2.9 89 1.2         12.43
2010-Dec-10 05:01:14 1016.700 2.4 90 0.9         12.43
2010-Dec-10 06:01:14 1017.100 1.9 90 0.4         12.43
2010-Dec-10 07:01:16 1017.600 1.8 90 0.3         12.43
2010-Dec-10 08:01:14 1018.400 1.8 91 0.5         12.43
2010-Dec-10 09:01:17 1018.900 1.7 91 0.3         12.43
2010-Dec-10 10:01:12 1019.500 3.7 92 2.5         12.43
2010-Dec-10 11:01:14 1020.000 8.9 90 7.4         12.43
2010-Dec-10 12:01:13 1019.800 10.5 87 8.4         12.43
2010-Dec-10 13:01:13 1019.200 13.9 77 9.9         12.43
2010-Dec-10 14:01:15 1018.900 13.3 76 9.1         12.43
2010-Dec-10 15:01:11 1018.500 12.6 77 8.7         12.43
2010-Dec-10 16:01:17 1018.500 13.5 75 9.1         12.43
2010-Dec-10 17:01:12 1018.500 11.9 80 8.6         12.43
2010-Dec-10 18:01:12 1019.000 9.7 86 7.4         12.43
2010-Dec-10 19:01:17 1019.200 9.6 89 7.9         12.43
2010-Dec-10 20:01:14 1019.300 9.4 90 7.9         12.43
2010-Dec-10 21:01:13 1019.400 9.0 91 7.7         12.43
2010-Dec-10 22:01:12 1019.300 8.7 91 7.3         12.43
2010-Dec-10 23:01:13 1018.900 8.4 91 7.0         12.43

Temperatura Máxima:13°    Temperatura Mínima:
Presión Máxima:1020.000 Hpa    Presión Mínima:1016.500 Hpa


Volver